sensor_id;sensor_type;location;lat;lon;timestamp;pressure;altitude;pressure_sealevel;temperature;humidity
43804;BME280;29430;52.924;-2.388;2024-02-21T00:02:07;99243.50;;;9.22;100.00
43804;BME280;29430;52.924;-2.388;2024-02-21T00:06:59;99252.22;;;9.24;100.00
43804;BME280;29430;52.924;-2.388;2024-02-21T00:11:51;99231.81;;;9.22;100.00
43804;BME280;29430;52.924;-2.388;2024-02-21T00:16:43;99221.44;;;9.19;100.00
43804;BME280;29430;52.924;-2.388;2024-02-21T00:21:35;99224.38;;;9.17;100.00
43804;BME280;29430;52.924;-2.388;2024-02-21T00:26:26;99225.66;;;9.14;100.00
43804;BME280;29430;52.924;-2.388;2024-02-21T00:31:18;99210.31;;;9.08;100.00
43804;BME280;29430;52.924;-2.388;2024-02-21T00:36:10;99213.47;;;9.05;100.00
43804;BME280;29430;52.924;-2.388;2024-02-21T00:41:01;99200.97;;;9.04;100.00
43804;BME280;29430;52.924;-2.388;2024-02-21T00:45:53;99199.09;;;9.05;100.00
43804;BME280;29430;52.924;-2.388;2024-02-21T00:50:45;99165.44;;;9.01;100.00
43804;BME280;29430;52.924;-2.388;2024-02-21T00:55:36;99161.88;;;9.00;100.00
43804;BME280;29430;52.924;-2.388;2024-02-21T01:00:28;99152.56;;;8.96;100.00
43804;BME280;29430;52.924;-2.388;2024-02-21T01:05:20;99143.81;;;8.94;100.00
43804;BME280;29430;52.924;-2.388;2024-02-21T01:10:12;99128.66;;;8.93;100.00
43804;BME280;29430;52.924;-2.388;2024-02-21T01:15:04;99114.28;;;8.92;100.00
43804;BME280;29430;52.924;-2.388;2024-02-21T01:19:56;99114.50;;;8.91;100.00
43804;BME280;29430;52.924;-2.388;2024-02-21T01:24:47;99083.94;;;8.90;100.00
43804;BME280;29430;52.924;-2.388;2024-02-21T01:29:39;99074.63;;;8.86;100.00
43804;BME280;29430;52.924;-2.388;2024-02-21T01:34:31;99056.75;;;8.85;100.00
43804;BME280;29430;52.924;-2.388;2024-02-21T01:39:23;99048.25;;;8.82;100.00
43804;BME280;29430;52.924;-2.388;2024-02-21T01:44:15;99031.41;;;8.80;100.00
43804;BME280;29430;52.924;-2.388;2024-02-21T01:49:07;99043.28;;;8.78;100.00
43804;BME280;29430;52.924;-2.388;2024-02-21T01:53:59;99051.63;;;8.77;100.00
43804;BME280;29430;52.924;-2.388;2024-02-21T01:58:51;99036.28;;;8.71;100.00
43804;BME280;29430;52.924;-2.388;2024-02-21T02:03:45;99027.34;;;8.70;100.00
43804;BME280;29430;52.924;-2.388;2024-02-21T02:08:37;99010.53;;;8.68;100.00
43804;BME280;29430;52.924;-2.388;2024-02-21T02:13:29;98999.94;;;8.67;100.00
43804;BME280;29430;52.924;-2.388;2024-02-21T02:18:21;98990.16;;;8.66;100.00
43804;BME280;29430;52.924;-2.388;2024-02-21T02:23:29;98975.22;;;8.63;100.00
43804;BME280;29430;52.924;-2.388;2024-02-21T02:28:21;98957.38;;;8.62;100.00
43804;BME280;29430;52.924;-2.388;2024-02-21T02:33:14;98945.69;;;8.62;100.00
43804;BME280;29430;52.924;-2.388;2024-02-21T02:38:06;98921.59;;;8.60;100.00
43804;BME280;29430;52.924;-2.388;2024-02-21T02:42:58;98933.94;;;8.56;100.00
43804;BME280;29430;52.924;-2.388;2024-02-21T02:47:49;98905.47;;;8.53;100.00
43804;BME280;29430;52.924;-2.388;2024-02-21T02:52:41;98886.53;;;8.53;100.00
43804;BME280;29430;52.924;-2.388;2024-02-21T02:57:33;98874.28;;;8.51;100.00
43804;BME280;29430;52.924;-2.388;2024-02-21T03:02:24;98862.22;;;8.53;100.00
43804;BME280;29430;52.924;-2.388;2024-02-21T03:07:16;98857.25;;;8.50;100.00
43804;BME280;29430;52.924;-2.388;2024-02-21T03:12:09;98841.88;;;8.51;100.00
43804;BME280;29430;52.924;-2.388;2024-02-21T03:17:01;98820.47;;;8.49;100.00
43804;BME280;29430;52.924;-2.388;2024-02-21T03:21:53;98786.19;;;8.50;100.00
43804;BME280;29430;52.924;-2.388;2024-02-21T03:26:46;98778.53;;;8.47;100.00
43804;BME280;29430;52.924;-2.388;2024-02-21T03:31:39;98754.66;;;8.44;100.00
43804;BME280;29430;52.924;-2.388;2024-02-21T03:36:31;98748.63;;;8.41;100.00
43804;BME280;29430;52.924;-2.388;2024-02-21T03:41:23;98731.22;;;8.37;100.00
43804;BME280;29430;52.924;-2.388;2024-02-21T03:46:15;98729.78;;;8.35;100.00
43804;BME280;29430;52.924;-2.388;2024-02-21T03:51:07;98703.81;;;8.34;100.00
43804;BME280;29430;52.924;-2.388;2024-02-21T03:56:01;98689.50;;;8.33;100.00
43804;BME280;29430;52.924;-2.388;2024-02-21T04:00:56;98675.41;;;8.31;100.00
43804;BME280;29430;52.924;-2.388;2024-02-21T04:05:47;98652.13;;;8.30;100.00
43804;BME280;29430;52.924;-2.388;2024-02-21T04:10:40;98637.19;;;8.28;100.00
43804;BME280;29430;52.924;-2.388;2024-02-21T04:15:31;98654.25;;;8.28;100.00
43804;BME280;29430;52.924;-2.388;2024-02-21T04:20:23;98638.50;;;8.25;100.00
43804;BME280;29430;52.924;-2.388;2024-02-21T04:25:15;98611.09;;;8.21;100.00
43804;BME280;29430;52.924;-2.388;2024-02-21T04:30:07;98590.34;;;8.22;100.00
43804;BME280;29430;52.924;-2.388;2024-02-21T04:35:01;98577.88;;;8.21;100.00
43804;BME280;29430;52.924;-2.388;2024-02-21T04:39:53;98592.19;;;8.21;100.00
43804;BME280;29430;52.924;-2.388;2024-02-21T04:44:45;98550.88;;;8.21;100.00
43804;BME280;29430;52.924;-2.388;2024-02-21T04:49:36;98524.66;;;8.21;100.00
43804;BME280;29430;52.924;-2.388;2024-02-21T04:54:28;98525.75;;;8.20;100.00
43804;BME280;29430;52.924;-2.388;2024-02-21T04:59:20;98497.31;;;8.18;100.00
43804;BME280;29430;52.924;-2.388;2024-02-21T05:04:12;98487.31;;;8.18;100.00
43804;BME280;29430;52.924;-2.388;2024-02-21T05:09:04;98476.03;;;8.21;100.00
43804;BME280;29430;52.924;-2.388;2024-02-21T05:13:56;98455.28;;;8.22;100.00
43804;BME280;29430;52.924;-2.388;2024-02-21T05:18:48;98433.28;;;8.18;100.00
43804;BME280;29430;52.924;-2.388;2024-02-21T05:23:39;98422.72;;;8.17;100.00
43804;BME280;29430;52.924;-2.388;2024-02-21T05:28:31;98413.81;;;8.16;100.00
43804;BME280;29430;52.924;-2.388;2024-02-21T05:33:23;98414.84;;;8.15;100.00
43804;BME280;29430;52.924;-2.388;2024-02-21T05:38:15;98405.13;;;8.14;100.00
43804;BME280;29430;52.924;-2.388;2024-02-21T05:43:10;98379.16;;;8.13;100.00
43804;BME280;29430;52.924;-2.388;2024-02-21T05:48:03;98357.47;;;8.08;100.00
43804;BME280;29430;52.924;-2.388;2024-02-21T05:52:55;98352.53;;;8.05;100.00
43804;BME280;29430;52.924;-2.388;2024-02-21T05:57:48;98321.66;;;8.01;100.00
43804;BME280;29430;52.924;-2.388;2024-02-21T06:02:40;98298.88;;;7.97;100.00
43804;BME280;29430;52.924;-2.388;2024-02-21T06:07:31;98276.34;;;7.91;100.00
43804;BME280;29430;52.924;-2.388;2024-02-21T06:12:23;98287.25;;;7.84;100.00
43804;BME280;29430;52.924;-2.388;2024-02-21T06:17:15;98266.13;;;7.81;100.00
43804;BME280;29430;52.924;-2.388;2024-02-21T06:22:06;98278.47;;;7.77;100.00
43804;BME280;29430;52.924;-2.388;2024-02-21T06:26:59;98243.47;;;7.70;100.00
43804;BME280;29430;52.924;-2.388;2024-02-21T06:31:51;98203.94;;;7.64;100.00
43804;BME280;29430;52.924;-2.388;2024-02-21T06:36:44;98199.88;;;7.62;100.00
43804;BME280;29430;52.924;-2.388;2024-02-21T06:41:37;98208.28;;;7.53;100.00
43804;BME280;29430;52.924;-2.388;2024-02-21T06:46:29;98204.06;;;7.46;100.00
43804;BME280;29430;52.924;-2.388;2024-02-21T06:51:22;98182.84;;;7.38;100.00
43804;BME280;29430;52.924;-2.388;2024-02-21T06:56:14;98181.91;;;7.32;100.00
43804;BME280;29430;52.924;-2.388;2024-02-21T07:01:06;98152.25;;;7.32;100.00
43804;BME280;29430;52.924;-2.388;2024-02-21T07:05:58;98137.84;;;7.26;100.00
43804;BME280;29430;52.924;-2.388;2024-02-21T07:10:50;98095.97;;;7.24;100.00
43804;BME280;29430;52.924;-2.388;2024-02-21T07:15:42;98084.97;;;7.25;100.00
43804;BME280;29430;52.924;-2.388;2024-02-21T07:20:34;98064.44;;;7.24;100.00
43804;BME280;29430;52.924;-2.388;2024-02-21T07:25:28;98062.22;;;7.21;100.00
43804;BME280;29430;52.924;-2.388;2024-02-21T07:30:20;98056.81;;;7.21;100.00
43804;BME280;29430;52.924;-2.388;2024-02-21T07:35:11;98050.13;;;7.24;100.00
43804;BME280;29430;52.924;-2.388;2024-02-21T07:40:05;98015.88;;;7.24;100.00
43804;BME280;29430;52.924;-2.388;2024-02-21T07:44:57;98005.09;;;7.24;100.00
43804;BME280;29430;52.924;-2.388;2024-02-21T07:49:49;98009.44;;;7.25;100.00
43804;BME280;29430;52.924;-2.388;2024-02-21T07:54:41;97993.84;;;7.27;100.00
43804;BME280;29430;52.924;-2.388;2024-02-21T07:59:33;97973.69;;;7.30;100.00
43804;BME280;29430;52.924;-2.388;2024-02-21T08:04:25;98002.88;;;7.33;100.00
43804;BME280;29430;52.924;-2.388;2024-02-21T08:09:17;97947.88;;;7.34;100.00
43804;BME280;29430;52.924;-2.388;2024-02-21T08:14:09;97922.53;;;7.35;100.00
43804;BME280;29430;52.924;-2.388;2024-02-21T08:19:00;97927.19;;;7.40;100.00
43804;BME280;29430;52.924;-2.388;2024-02-21T08:23:55;97898.69;;;7.44;100.00
43804;BME280;29430;52.924;-2.388;2024-02-21T08:28:46;97868.78;;;7.45;100.00
43804;BME280;29430;52.924;-2.388;2024-02-21T08:33:40;97862.91;;;7.48;100.00
43804;BME280;29430;52.924;-2.388;2024-02-21T08:38:31;97852.66;;;7.50;100.00
43804;BME280;29430;52.924;-2.388;2024-02-21T08:43:24;97834.94;;;7.55;100.00
43804;BME280;29430;52.924;-2.388;2024-02-21T08:48:16;97809.63;;;7.56;100.00
43804;BME280;29430;52.924;-2.388;2024-02-21T08:53:08;97776.75;;;7.59;100.00
43804;BME280;29430;52.924;-2.388;2024-02-21T08:58:00;97765.72;;;7.60;100.00
43804;BME280;29430;52.924;-2.388;2024-02-21T09:02:52;97750.88;;;7.63;100.00
43804;BME280;29430;52.924;-2.388;2024-02-21T09:07:44;97743.13;;;7.66;100.00
43804;BME280;29430;52.924;-2.388;2024-02-21T09:12:35;97708.38;;;7.70;100.00
43804;BME280;29430;52.924;-2.388;2024-02-21T09:17:27;97686.28;;;7.73;100.00
43804;BME280;29430;52.924;-2.388;2024-02-21T09:22:21;97667.44;;;7.78;100.00
43804;BME280;29430;52.924;-2.388;2024-02-21T09:27:13;97650.75;;;7.81;100.00
43804;BME280;29430;52.924;-2.388;2024-02-21T09:32:05;97639.47;;;7.84;100.00
43804;BME280;29430;52.924;-2.388;2024-02-21T09:36:57;97655.16;;;7.87;100.00
43804;BME280;29430;52.924;-2.388;2024-02-21T09:42:05;97614.16;;;7.91;100.00
43804;BME280;29430;52.924;-2.388;2024-02-21T09:47:03;97572.09;;;7.95;100.00
43804;BME280;29430;52.924;-2.388;2024-02-21T09:51:57;97568.41;;;8.01;100.00
43804;BME280;29430;52.924;-2.388;2024-02-21T09:56:49;97558.72;;;8.05;100.00
43804;BME280;29430;52.924;-2.388;2024-02-21T10:01:42;97544.47;;;8.10;100.00
43804;BME280;29430;52.924;-2.388;2024-02-21T10:06:36;97525.84;;;8.13;100.00
43804;BME280;29430;52.924;-2.388;2024-02-21T10:11:28;97492.44;;;8.19;100.00
43804;BME280;29430;52.924;-2.388;2024-02-21T10:16:20;97474.06;;;8.21;100.00
43804;BME280;29430;52.924;-2.388;2024-02-21T10:21:13;97484.41;;;8.30;100.00
43804;BME280;29430;52.924;-2.388;2024-02-21T10:26:05;97466.91;;;8.37;100.00
43804;BME280;29430;52.924;-2.388;2024-02-21T10:30:57;97449.44;;;8.45;100.00
43804;BME280;29430;52.924;-2.388;2024-02-21T10:35:49;97450.28;;;8.51;100.00
43804;BME280;29430;52.924;-2.388;2024-02-21T10:40:41;97435.44;;;8.53;100.00
43804;BME280;29430;52.924;-2.388;2024-02-21T10:45:36;97409.28;;;8.64;100.00
43804;BME280;29430;52.924;-2.388;2024-02-21T10:50:29;97395.78;;;8.69;100.00
43804;BME280;29430;52.924;-2.388;2024-02-21T10:55:34;97388.53;;;8.70;100.00
43804;BME280;29430;52.924;-2.388;2024-02-21T11:00:30;97390.44;;;8.80;100.00
43804;BME280;29430;52.924;-2.388;2024-02-21T11:05:23;97391.81;;;8.82;100.00
43804;BME280;29430;52.924;-2.388;2024-02-21T11:10:25;97385.31;;;8.83;100.00
43804;BME280;29430;52.924;-2.388;2024-02-21T11:15:17;97391.56;;;8.89;100.00
43804;BME280;29430;52.924;-2.388;2024-02-21T11:20:13;97343.19;;;8.92;100.00
43804;BME280;29430;52.924;-2.388;2024-02-21T11:25:08;97345.34;;;8.95;100.00
43804;BME280;29430;52.924;-2.388;2024-02-21T11:30:04;97346.97;;;8.96;100.00
43804;BME280;29430;52.924;-2.388;2024-02-21T11:34:57;97347.53;;;8.99;100.00
43804;BME280;29430;52.924;-2.388;2024-02-21T11:39:57;97330.50;;;8.98;100.00
43804;BME280;29430;52.924;-2.388;2024-02-21T11:44:49;97330.22;;;9.00;100.00
43804;BME280;29430;52.924;-2.388;2024-02-21T11:49:48;97330.50;;;9.03;100.00
43804;BME280;29430;52.924;-2.388;2024-02-21T11:54:42;97330.75;;;9.02;100.00
43804;BME280;29430;52.924;-2.388;2024-02-21T11:59:34;97329.69;;;9.03;100.00
43804;BME280;29430;52.924;-2.388;2024-02-21T12:04:26;97316.19;;;9.03;100.00
43804;BME280;29430;52.924;-2.388;2024-02-21T12:09:18;97296.97;;;9.04;100.00
43804;BME280;29430;52.924;-2.388;2024-02-21T12:14:10;97274.00;;;9.02;100.00
43804;BME280;29430;52.924;-2.388;2024-02-21T12:19:03;97246.41;;;9.05;100.00
43804;BME280;29430;52.924;-2.388;2024-02-21T12:23:57;97243.97;;;9.03;100.00
43804;BME280;29430;52.924;-2.388;2024-02-21T12:28:49;97242.91;;;9.04;100.00
43804;BME280;29430;52.924;-2.388;2024-02-21T12:33:41;97233.47;;;9.07;100.00
43804;BME280;29430;52.924;-2.388;2024-02-21T12:38:32;97222.09;;;9.10;100.00
43804;BME280;29430;52.924;-2.388;2024-02-21T12:43:24;97236.41;;;9.16;100.00
43804;BME280;29430;52.924;-2.388;2024-02-21T12:48:16;97229.94;;;9.22;100.00
43804;BME280;29430;52.924;-2.388;2024-02-21T12:53:08;97215.06;;;9.24;100.00
43804;BME280;29430;52.924;-2.388;2024-02-21T12:58:13;97237.53;;;9.30;100.00
43804;BME280;29430;52.924;-2.388;2024-02-21T13:03:05;97223.72;;;9.31;100.00
43804;BME280;29430;52.924;-2.388;2024-02-21T13:07:57;97225.31;;;9.32;100.00
43804;BME280;29430;52.924;-2.388;2024-02-21T13:12:49;97228.59;;;9.35;100.00
43804;BME280;29430;52.924;-2.388;2024-02-21T13:17:44;97217.22;;;9.38;100.00
43804;BME280;29430;52.924;-2.388;2024-02-21T13:22:36;97220.72;;;9.43;100.00
43804;BME280;29430;52.924;-2.388;2024-02-21T13:27:28;97210.44;;;9.50;100.00
43804;BME280;29430;52.924;-2.388;2024-02-21T13:32:19;97204.47;;;9.54;100.00
43804;BME280;29430;52.924;-2.388;2024-02-21T13:37:11;97190.41;;;9.57;100.00
43804;BME280;29430;52.924;-2.388;2024-02-21T13:42:05;97165.78;;;9.58;100.00
43804;BME280;29430;52.924;-2.388;2024-02-21T13:46:57;97165.75;;;9.63;100.00
43804;BME280;29430;52.924;-2.388;2024-02-21T13:51:49;97143.84;;;9.70;100.00
43804;BME280;29430;52.924;-2.388;2024-02-21T13:56:40;97154.88;;;9.79;100.00
43804;BME280;29430;52.924;-2.388;2024-02-21T14:01:32;97160.81;;;9.86;100.00
43804;BME280;29430;52.924;-2.388;2024-02-21T14:06:24;97157.00;;;9.92;100.00
43804;BME280;29430;52.924;-2.388;2024-02-21T14:11:16;97169.44;;;9.98;100.00
43804;BME280;29430;52.924;-2.388;2024-02-21T14:16:11;97165.06;;;10.08;100.00
43804;BME280;29430;52.924;-2.388;2024-02-21T14:21:09;97178.56;;;10.18;100.00
43804;BME280;29430;52.924;-2.388;2024-02-21T14:26:04;97181.50;;;10.27;100.00
43804;BME280;29430;52.924;-2.388;2024-02-21T14:30:58;97195.84;;;10.37;100.00
43804;BME280;29430;52.924;-2.388;2024-02-21T14:35:49;97192.56;;;10.46;100.00
43804;BME280;29430;52.924;-2.388;2024-02-21T14:40:41;97191.97;;;10.54;100.00
43804;BME280;29430;52.924;-2.388;2024-02-21T14:45:33;97205.19;;;10.61;100.00
43804;BME280;29430;52.924;-2.388;2024-02-21T14:50:24;97198.91;;;10.70;100.00
43804;BME280;29430;52.924;-2.388;2024-02-21T14:55:16;97187.19;;;10.80;100.00
43804;BME280;29430;52.924;-2.388;2024-02-21T15:00:08;97184.94;;;10.92;100.00
43804;BME280;29430;52.924;-2.388;2024-02-21T15:05:01;97178.59;;;11.02;100.00
43804;BME280;29430;52.924;-2.388;2024-02-21T15:09:55;97177.19;;;11.10;100.00
43804;BME280;29430;52.924;-2.388;2024-02-21T15:14:46;97166.84;;;11.17;100.00
43804;BME280;29430;52.924;-2.388;2024-02-21T15:19:38;97165.44;;;11.20;100.00
43804;BME280;29430;52.924;-2.388;2024-02-21T15:24:35;97169.72;;;11.26;100.00
43804;BME280;29430;52.924;-2.388;2024-02-21T15:29:27;97180.00;;;11.29;100.00
43804;BME280;29430;52.924;-2.388;2024-02-21T15:34:19;97179.16;;;11.34;100.00
43804;BME280;29430;52.924;-2.388;2024-02-21T15:39:11;97184.25;;;11.40;100.00
43804;BME280;29430;52.924;-2.388;2024-02-21T15:44:04;97196.44;;;11.43;100.00
43804;BME280;29430;52.924;-2.388;2024-02-21T15:48:56;97190.72;;;11.44;100.00
43804;BME280;29430;52.924;-2.388;2024-02-21T15:53:48;97201.84;;;11.48;100.00
43804;BME280;29430;52.924;-2.388;2024-02-21T15:58:40;97205.63;;;11.47;100.00
43804;BME280;29430;52.924;-2.388;2024-02-21T16:03:33;97195.06;;;11.45;100.00
43804;BME280;29430;52.924;-2.388;2024-02-21T16:08:25;97194.00;;;11.41;100.00
43804;BME280;29430;52.924;-2.388;2024-02-21T16:13:16;97176.63;;;11.42;100.00
43804;BME280;29430;52.924;-2.388;2024-02-21T16:18:08;97186.13;;;11.45;100.00
43804;BME280;29430;52.924;-2.388;2024-02-21T16:23:00;97192.91;;;11.42;100.00
43804;BME280;29430;52.924;-2.388;2024-02-21T16:27:55;97201.91;;;11.38;100.00
43804;BME280;29430;52.924;-2.388;2024-02-21T16:32:46;97205.25;;;11.29;100.00
43804;BME280;29430;52.924;-2.388;2024-02-21T16:37:38;97213.97;;;11.26;100.00
43804;BME280;29430;52.924;-2.388;2024-02-21T16:42:30;97217.81;;;11.20;100.00
43804;BME280;29430;52.924;-2.388;2024-02-21T16:47:22;97211.03;;;11.18;100.00
43804;BME280;29430;52.924;-2.388;2024-02-21T16:52:16;97215.13;;;11.15;100.00
43804;BME280;29430;52.924;-2.388;2024-02-21T16:57:08;97231.16;;;11.11;100.00
43804;BME280;29430;52.924;-2.388;2024-02-21T17:02:00;97212.78;;;11.03;100.00
43804;BME280;29430;52.924;-2.388;2024-02-21T17:06:53;97220.72;;;10.95;100.00
43804;BME280;29430;52.924;-2.388;2024-02-21T17:11:45;97224.53;;;10.88;100.00
43804;BME280;29430;52.924;-2.388;2024-02-21T17:16:37;97218.09;;;10.79;100.00
43804;BME280;29430;52.924;-2.388;2024-02-21T17:21:29;97222.72;;;10.73;100.00
43804;BME280;29430;52.924;-2.388;2024-02-21T17:26:21;97222.81;;;10.63;100.00
43804;BME280;29430;52.924;-2.388;2024-02-21T17:31:15;97232.63;;;10.54;100.00
43804;BME280;29430;52.924;-2.388;2024-02-21T17:36:07;97231.03;;;10.48;100.00
43804;BME280;29430;52.924;-2.388;2024-02-21T17:41:00;97232.69;;;10.38;100.00
43804;BME280;29430;52.924;-2.388;2024-02-21T17:45:52;97229.72;;;10.30;100.00
43804;BME280;29430;52.924;-2.388;2024-02-21T17:50:47;97227.03;;;10.25;100.00
43804;BME280;29430;52.924;-2.388;2024-02-21T17:55:39;97233.03;;;10.16;100.00
43804;BME280;29430;52.924;-2.388;2024-02-21T18:00:31;97231.69;;;10.09;100.00
43804;BME280;29430;52.924;-2.388;2024-02-21T18:05:23;97219.25;;;10.02;100.00
43804;BME280;29430;52.924;-2.388;2024-02-21T18:10:15;97202.50;;;9.95;100.00
43804;BME280;29430;52.924;-2.388;2024-02-21T18:15:08;97202.50;;;9.90;100.00
43804;BME280;29430;52.924;-2.388;2024-02-21T18:20:03;97195.22;;;9.85;100.00
43804;BME280;29430;52.924;-2.388;2024-02-21T18:24:55;97207.94;;;9.80;100.00
43804;BME280;29430;52.924;-2.388;2024-02-21T18:29:48;97194.16;;;9.71;100.00
43804;BME280;29430;52.924;-2.388;2024-02-21T18:34:40;97206.91;;;9.65;100.00
43804;BME280;29430;52.924;-2.388;2024-02-21T18:39:32;97202.03;;;9.62;100.00
43804;BME280;29430;52.924;-2.388;2024-02-21T18:44:24;97208.28;;;9.58;100.00
43804;BME280;29430;52.924;-2.388;2024-02-21T18:49:16;97201.78;;;9.54;100.00
43804;BME280;29430;52.924;-2.388;2024-02-21T18:54:08;97204.47;;;9.54;100.00
43804;BME280;29430;52.924;-2.388;2024-02-21T18:58:59;97209.09;;;9.53;100.00
43804;BME280;29430;52.924;-2.388;2024-02-21T19:03:51;97206.66;;;9.46;100.00
43804;BME280;29430;52.924;-2.388;2024-02-21T19:08:43;97213.97;;;9.46;100.00
43804;BME280;29430;52.924;-2.388;2024-02-21T19:13:35;97200.19;;;9.42;100.00
43804;BME280;29430;52.924;-2.388;2024-02-21T19:18:27;97205.31;;;9.39;100.00
43804;BME280;29430;52.924;-2.388;2024-02-21T19:23:20;97187.72;;;9.31;100.00
43804;BME280;29430;52.924;-2.388;2024-02-21T19:28:11;97177.19;;;9.29;100.00
43804;BME280;29430;52.924;-2.388;2024-02-21T19:33:03;97163.13;;;9.27;100.00
43804;BME280;29430;52.924;-2.388;2024-02-21T19:37:58;97169.34;;;9.28;100.00
43804;BME280;29430;52.924;-2.388;2024-02-21T19:42:54;97165.84;;;9.27;100.00
43804;BME280;29430;52.924;-2.388;2024-02-21T19:47:46;97160.16;;;9.29;100.00
43804;BME280;29430;52.924;-2.388;2024-02-21T19:52:38;97174.19;;;9.31;100.00
43804;BME280;29430;52.924;-2.388;2024-02-21T19:57:31;97165.81;;;9.32;100.00
43804;BME280;29430;52.924;-2.388;2024-02-21T20:02:22;97176.09;;;9.36;100.00
43804;BME280;29430;52.924;-2.388;2024-02-21T20:07:15;97172.84;;;9.39;100.00
43804;BME280;29430;52.924;-2.388;2024-02-21T20:12:08;97161.75;;;9.40;100.00
43804;BME280;29430;52.924;-2.388;2024-02-21T20:17:00;97169.88;;;9.40;100.00
43804;BME280;29430;52.924;-2.388;2024-02-21T20:21:52;97172.56;;;9.40;100.00
43804;BME280;29430;52.924;-2.388;2024-02-21T20:26:43;97182.59;;;9.40;100.00
43804;BME280;29430;52.924;-2.388;2024-02-21T20:31:36;97179.59;;;9.41;100.00
43804;BME280;29430;52.924;-2.388;2024-02-21T20:36:28;97176.38;;;9.39;100.00
43804;BME280;29430;52.924;-2.388;2024-02-21T20:41:20;97172.59;;;9.35;100.00
43804;BME280;29430;52.924;-2.388;2024-02-21T20:46:12;97171.50;;;9.36;100.00
43804;BME280;29430;52.924;-2.388;2024-02-21T20:51:04;97160.13;;;9.34;100.00
43804;BME280;29430;52.924;-2.388;2024-02-21T20:55:56;97163.66;;;9.29;100.00
43804;BME280;29430;52.924;-2.388;2024-02-21T21:00:48;97143.66;;;9.25;100.00
43804;BME280;29430;52.924;-2.388;2024-02-21T21:05:40;97150.94;;;9.25;100.00
43804;BME280;29430;52.924;-2.388;2024-02-21T21:10:33;97152.84;;;9.24;100.00
43804;BME280;29430;52.924;-2.388;2024-02-21T21:15:25;97139.34;;;9.19;100.00
43804;BME280;29430;52.924;-2.388;2024-02-21T21:20:19;97131.22;;;9.14;100.00
43804;BME280;29430;52.924;-2.388;2024-02-21T21:25:13;97122.59;;;9.07;100.00
43804;BME280;29430;52.924;-2.388;2024-02-21T21:30:05;97118.53;;;8.99;100.00
43804;BME280;29430;52.924;-2.388;2024-02-21T21:34:57;97113.13;;;8.89;100.00
43804;BME280;29430;52.924;-2.388;2024-02-21T21:39:50;97113.41;;;8.82;100.00
43804;BME280;29430;52.924;-2.388;2024-02-21T21:44:46;97107.72;;;8.73;100.00
43804;BME280;29430;52.924;-2.388;2024-02-21T21:49:38;97093.66;;;8.66;100.00
43804;BME280;29430;52.924;-2.388;2024-02-21T21:54:29;97088.28;;;8.61;100.00
43804;BME280;29430;52.924;-2.388;2024-02-21T21:59:21;97088.56;;;8.54;100.00
43804;BME280;29430;52.924;-2.388;2024-02-21T22:04:13;97090.69;;;8.47;100.00
43804;BME280;29430;52.924;-2.388;2024-02-21T22:09:05;97096.88;;;8.42;100.00
43804;BME280;29430;52.924;-2.388;2024-02-21T22:13:57;97082.28;;;8.38;100.00
43804;BME280;29430;52.924;-2.388;2024-02-21T22:18:49;97085.25;;;8.32;100.00
43804;BME280;29430;52.924;-2.388;2024-02-21T22:23:41;97080.13;;;8.30;100.00
43804;BME280;29430;52.924;-2.388;2024-02-21T22:28:36;97063.09;;;8.24;100.00
43804;BME280;29430;52.924;-2.388;2024-02-21T22:33:28;97061.47;;;8.18;100.00
43804;BME280;29430;52.924;-2.388;2024-02-21T22:38:20;97049.88;;;8.18;100.00
43804;BME280;29430;52.924;-2.388;2024-02-21T22:43:11;97042.03;;;8.11;100.00
43804;BME280;29430;52.924;-2.388;2024-02-21T22:48:03;97036.63;;;8.11;100.00
43804;BME280;29430;52.924;-2.388;2024-02-21T22:52:55;97037.16;;;8.08;100.00
43804;BME280;29430;52.924;-2.388;2024-02-21T22:57:47;97042.00;;;8.06;100.00
43804;BME280;29430;52.924;-2.388;2024-02-21T23:02:39;97049.84;;;8.02;100.00
43804;BME280;29430;52.924;-2.388;2024-02-21T23:07:31;97037.69;;;8.00;100.00
43804;BME280;29430;52.924;-2.388;2024-02-21T23:12:23;97037.16;;;7.98;100.00
43804;BME280;29430;52.924;-2.388;2024-02-21T23:17:15;97031.75;;;7.93;100.00
43804;BME280;29430;52.924;-2.388;2024-02-21T23:22:07;97016.34;;;7.88;100.00
43804;BME280;29430;52.924;-2.388;2024-02-21T23:26:59;97012.28;;;7.85;100.00
43804;BME280;29430;52.924;-2.388;2024-02-21T23:31:51;97012.28;;;7.80;100.00
43804;BME280;29430;52.924;-2.388;2024-02-21T23:36:42;96996.91;;;7.76;100.00
43804;BME280;29430;52.924;-2.388;2024-02-21T23:41:34;96999.84;;;7.69;100.00
43804;BME280;29430;52.924;-2.388;2024-02-21T23:46:26;96999.31;;;7.62;100.00
43804;BME280;29430;52.924;-2.388;2024-02-21T23:51:18;96982.28;;;7.56;100.00
43804;BME280;29430;52.924;-2.388;2024-02-21T23:56:11;96961.50;;;7.51;100.00
